sensor_id;sensor_type;location;lat;lon;timestamp;temperature;humidity
52889;DHT22;41413;52.770;6.892;2023-06-14T00:00:39;19.70;72.30
52889;DHT22;41413;52.770;6.892;2023-06-14T00:03:10;19.60;72.40
52889;DHT22;41413;52.770;6.892;2023-06-14T00:05:39;19.50;72.90
52889;DHT22;41413;52.770;6.892;2023-06-14T00:08:10;19.50;73.00
52889;DHT22;41413;52.770;6.892;2023-06-14T00:10:37;19.40;73.00
52889;DHT22;41413;52.770;6.892;2023-06-14T00:13:04;19.40;73.20
52889;DHT22;41413;52.770;6.892;2023-06-14T00:15:31;19.40;73.40
52889;DHT22;41413;52.770;6.892;2023-06-14T00:17:58;19.40;73.50
52889;DHT22;41413;52.770;6.892;2023-06-14T00:20:28;19.10;73.60
52889;DHT22;41413;52.770;6.892;2023-06-14T00:22:56;19.20;73.90
52889;DHT22;41413;52.770;6.892;2023-06-14T00:25:23;19.10;74.00
52889;DHT22;41413;52.770;6.892;2023-06-14T00:27:56;19.10;74.20
52889;DHT22;41413;52.770;6.892;2023-06-14T00:30:24;19.00;74.40
52889;DHT22;41413;52.770;6.892;2023-06-14T00:32:51;19.00;74.50
52889;DHT22;41413;52.770;6.892;2023-06-14T00:35:18;18.90;74.90
52889;DHT22;41413;52.770;6.892;2023-06-14T00:37:45;18.90;74.90
52889;DHT22;41413;52.770;6.892;2023-06-14T00:40:12;18.80;74.90
52889;DHT22;41413;52.770;6.892;2023-06-14T00:42:39;18.80;75.00
52889;DHT22;41413;52.770;6.892;2023-06-14T00:45:06;18.80;75.50
52889;DHT22;41413;52.770;6.892;2023-06-14T00:47:34;18.70;75.50
52889;DHT22;41413;52.770;6.892;2023-06-14T00:50:02;18.60;75.90
52889;DHT22;41413;52.770;6.892;2023-06-14T00:52:29;18.60;75.90
52889;DHT22;41413;52.770;6.892;2023-06-14T00:54:56;18.60;76.20
52889;DHT22;41413;52.770;6.892;2023-06-14T00:57:23;18.50;76.20
52889;DHT22;41413;52.770;6.892;2023-06-14T00:59:50;18.50;76.30
52889;DHT22;41413;52.770;6.892;2023-06-14T01:02:17;18.50;76.50
52889;DHT22;41413;52.770;6.892;2023-06-14T01:04:47;18.50;77.00
52889;DHT22;41413;52.770;6.892;2023-06-14T01:15:16;18.30;78.00
52889;DHT22;41413;52.770;6.892;2023-06-14T01:17:44;18.30;77.70
52889;DHT22;41413;52.770;6.892;2023-06-14T01:20:12;18.20;77.80
52889;DHT22;41413;52.770;6.892;2023-06-14T01:22:50;18.30;78.20
52889;DHT22;41413;52.770;6.892;2023-06-14T01:25:22;18.20;78.30
52889;DHT22;41413;52.770;6.892;2023-06-14T01:28:04;18.30;78.30
52889;DHT22;41413;52.770;6.892;2023-06-14T01:30:39;18.20;78.70
52889;DHT22;41413;52.770;6.892;2023-06-14T01:33:09;18.30;78.80
52889;DHT22;41413;52.770;6.892;2023-06-14T01:35:36;18.10;79.00
52889;DHT22;41413;52.770;6.892;2023-06-14T01:38:03;18.10;79.30
52889;DHT22;41413;52.770;6.892;2023-06-14T01:40:33;18.10;79.50
52889;DHT22;41413;52.770;6.892;2023-06-14T01:43:02;18.00;79.50
52889;DHT22;41413;52.770;6.892;2023-06-14T01:45:30;18.00;79.70
52889;DHT22;41413;52.770;6.892;2023-06-14T01:47:57;18.00;80.10
52889;DHT22;41413;52.770;6.892;2023-06-14T01:50:23;17.90;80.20
52889;DHT22;41413;52.770;6.892;2023-06-14T01:52:54;18.00;80.50
52889;DHT22;41413;52.770;6.892;2023-06-14T01:55:21;17.80;80.50
52889;DHT22;41413;52.770;6.892;2023-06-14T01:57:49;17.80;80.80
52889;DHT22;41413;52.770;6.892;2023-06-14T02:00:16;17.80;81.00
52889;DHT22;41413;52.770;6.892;2023-06-14T02:02:45;17.90;81.00
52889;DHT22;41413;52.770;6.892;2023-06-14T02:05:12;17.70;81.10
52889;DHT22;41413;52.770;6.892;2023-06-14T02:07:39;17.80;81.50
52889;DHT22;41413;52.770;6.892;2023-06-14T02:10:06;17.70;81.60
52889;DHT22;41413;52.770;6.892;2023-06-14T02:12:33;17.60;81.80
52889;DHT22;41413;52.770;6.892;2023-06-14T02:15:00;17.70;82.10
52889;DHT22;41413;52.770;6.892;2023-06-14T02:17:26;17.60;82.10
52889;DHT22;41413;52.770;6.892;2023-06-14T02:19:53;17.60;82.20
52889;DHT22;41413;52.770;6.892;2023-06-14T02:22:20;17.60;82.60
52889;DHT22;41413;52.770;6.892;2023-06-14T02:24:48;17.60;82.70
52889;DHT22;41413;52.770;6.892;2023-06-14T02:27:24;17.60;82.80
52889;DHT22;41413;52.770;6.892;2023-06-14T02:29:51;17.50;83.20
52889;DHT22;41413;52.770;6.892;2023-06-14T02:32:18;17.40;83.00
52889;DHT22;41413;52.770;6.892;2023-06-14T02:34:45;17.40;83.40
52889;DHT22;41413;52.770;6.892;2023-06-14T02:37:16;17.40;83.50
52889;DHT22;41413;52.770;6.892;2023-06-14T02:39:43;17.40;83.80
52889;DHT22;41413;52.770;6.892;2023-06-14T02:42:10;17.30;83.90
52889;DHT22;41413;52.770;6.892;2023-06-14T02:44:37;17.30;84.00
52889;DHT22;41413;52.770;6.892;2023-06-14T02:47:04;17.30;84.30
52889;DHT22;41413;52.770;6.892;2023-06-14T02:49:31;17.20;84.50
52889;DHT22;41413;52.770;6.892;2023-06-14T02:51:58;17.30;84.70
52889;DHT22;41413;52.770;6.892;2023-06-14T02:54:25;17.20;84.70
52889;DHT22;41413;52.770;6.892;2023-06-14T02:56:52;17.20;85.00
52889;DHT22;41413;52.770;6.892;2023-06-14T02:59:19;17.10;85.00
52889;DHT22;41413;52.770;6.892;2023-06-14T03:01:47;17.10;85.20
52889;DHT22;41413;52.770;6.892;2023-06-14T03:04:14;17.10;85.40
52889;DHT22;41413;52.770;6.892;2023-06-14T03:06:41;17.00;85.90
52889;DHT22;41413;52.770;6.892;2023-06-14T03:09:11;17.00;85.80
52889;DHT22;41413;52.770;6.892;2023-06-14T03:11:38;17.00;85.90
52889;DHT22;41413;52.770;6.892;2023-06-14T03:14:05;17.00;86.10
52889;DHT22;41413;52.770;6.892;2023-06-14T03:16:33;17.00;86.30
52889;DHT22;41413;52.770;6.892;2023-06-14T03:19:00;16.90;86.50
52889;DHT22;41413;52.770;6.892;2023-06-14T03:21:27;17.00;86.70
52889;DHT22;41413;52.770;6.892;2023-06-14T03:23:54;16.90;86.70
52889;DHT22;41413;52.770;6.892;2023-06-14T03:26:21;16.90;87.10
52889;DHT22;41413;52.770;6.892;2023-06-14T03:28:48;16.70;87.10
52889;DHT22;41413;52.770;6.892;2023-06-14T03:31:16;16.70;87.40
52889;DHT22;41413;52.770;6.892;2023-06-14T03:33:43;16.70;87.40
52889;DHT22;41413;52.770;6.892;2023-06-14T03:36:10;16.80;87.70
52889;DHT22;41413;52.770;6.892;2023-06-14T03:38:37;16.80;87.60
52889;DHT22;41413;52.770;6.892;2023-06-14T03:41:04;16.80;87.70
52889;DHT22;41413;52.770;6.892;2023-06-14T03:43:31;16.70;88.00
52889;DHT22;41413;52.770;6.892;2023-06-14T03:45:57;16.80;88.40
52889;DHT22;41413;52.770;6.892;2023-06-14T03:48:24;16.70;88.90
52889;DHT22;41413;52.770;6.892;2023-06-14T03:50:52;16.70;88.50
52889;DHT22;41413;52.770;6.892;2023-06-14T03:53:18;16.70;88.60
52889;DHT22;41413;52.770;6.892;2023-06-14T03:55:47;16.60;88.70
52889;DHT22;41413;52.770;6.892;2023-06-14T03:58:18;16.80;88.80
52889;DHT22;41413;52.770;6.892;2023-06-14T04:00:45;16.70;88.70
52889;DHT22;41413;52.770;6.892;2023-06-14T04:03:12;16.70;88.90
52889;DHT22;41413;52.770;6.892;2023-06-14T04:05:40;16.80;88.90
52889;DHT22;41413;52.770;6.892;2023-06-14T04:08:09;16.80;88.90
52889;DHT22;41413;52.770;6.892;2023-06-14T04:10:36;16.80;89.10
52889;DHT22;41413;52.770;6.892;2023-06-14T04:13:03;16.70;89.10
52889;DHT22;41413;52.770;6.892;2023-06-14T04:15:31;16.70;89.40
52889;DHT22;41413;52.770;6.892;2023-06-14T04:17:58;16.70;89.10
52889;DHT22;41413;52.770;6.892;2023-06-14T04:20:24;16.70;89.40
52889;DHT22;41413;52.770;6.892;2023-06-14T04:22:52;16.70;89.50
52889;DHT22;41413;52.770;6.892;2023-06-14T04:25:19;16.70;89.70
52889;DHT22;41413;52.770;6.892;2023-06-14T04:27:52;16.70;89.80
52889;DHT22;41413;52.770;6.892;2023-06-14T04:30:19;16.80;89.80
52889;DHT22;41413;52.770;6.892;2023-06-14T04:32:46;16.80;89.70
52889;DHT22;41413;52.770;6.892;2023-06-14T04:35:12;16.80;90.00
52889;DHT22;41413;52.770;6.892;2023-06-14T04:37:40;16.70;90.10
52889;DHT22;41413;52.770;6.892;2023-06-14T04:40:10;16.70;90.10
52889;DHT22;41413;52.770;6.892;2023-06-14T04:42:38;16.80;90.00
52889;DHT22;41413;52.770;6.892;2023-06-14T04:45:07;16.90;90.10
52889;DHT22;41413;52.770;6.892;2023-06-14T04:47:35;16.90;90.20
52889;DHT22;41413;52.770;6.892;2023-06-14T04:50:04;16.90;90.10
52889;DHT22;41413;52.770;6.892;2023-06-14T04:52:31;16.90;90.00
52889;DHT22;41413;52.770;6.892;2023-06-14T04:54:58;16.90;90.00
52889;DHT22;41413;52.770;6.892;2023-06-14T04:57:25;17.00;89.90
52889;DHT22;41413;52.770;6.892;2023-06-14T04:59:52;17.10;89.90
52889;DHT22;41413;52.770;6.892;2023-06-14T05:02:23;17.00;89.80
52889;DHT22;41413;52.770;6.892;2023-06-14T05:04:50;17.20;89.90
52889;DHT22;41413;52.770;6.892;2023-06-14T05:07:17;17.10;89.50
52889;DHT22;41413;52.770;6.892;2023-06-14T05:09:45;17.20;89.90
52889;DHT22;41413;52.770;6.892;2023-06-14T05:12:12;17.20;89.80
52889;DHT22;41413;52.770;6.892;2023-06-14T05:14:39;17.30;90.00
52889;DHT22;41413;52.770;6.892;2023-06-14T05:17:06;17.30;89.40
52889;DHT22;41413;52.770;6.892;2023-06-14T05:19:33;17.30;89.40
52889;DHT22;41413;52.770;6.892;2023-06-14T05:21:59;17.30;89.30
52889;DHT22;41413;52.770;6.892;2023-06-14T05:24:27;17.40;89.40
52889;DHT22;41413;52.770;6.892;2023-06-14T05:26:55;17.40;89.40
52889;DHT22;41413;52.770;6.892;2023-06-14T05:29:22;17.40;89.30
52889;DHT22;41413;52.770;6.892;2023-06-14T05:31:49;17.40;89.10
52889;DHT22;41413;52.770;6.892;2023-06-14T05:34:16;17.50;88.90
52889;DHT22;41413;52.770;6.892;2023-06-14T05:36:43;17.50;88.80
52889;DHT22;41413;52.770;6.892;2023-06-14T05:39:10;17.50;88.70
52889;DHT22;41413;52.770;6.892;2023-06-14T05:41:37;17.60;88.80
52889;DHT22;41413;52.770;6.892;2023-06-14T05:44:03;17.60;88.90
52889;DHT22;41413;52.770;6.892;2023-06-14T05:46:30;17.70;88.80
52889;DHT22;41413;52.770;6.892;2023-06-14T05:48:57;17.80;88.90
52889;DHT22;41413;52.770;6.892;2023-06-14T05:51:24;17.70;88.70
52889;DHT22;41413;52.770;6.892;2023-06-14T05:53:54;17.80;88.10
52889;DHT22;41413;52.770;6.892;2023-06-14T05:56:21;17.80;88.30
52889;DHT22;41413;52.770;6.892;2023-06-14T05:58:47;17.90;88.20
52889;DHT22;41413;52.770;6.892;2023-06-14T06:01:15;18.00;87.70
52889;DHT22;41413;52.770;6.892;2023-06-14T06:03:42;18.00;87.60
52889;DHT22;41413;52.770;6.892;2023-06-14T06:06:13;18.00;87.20
52889;DHT22;41413;52.770;6.892;2023-06-14T06:08:39;18.10;87.10
52889;DHT22;41413;52.770;6.892;2023-06-14T06:11:07;18.20;87.20
52889;DHT22;41413;52.770;6.892;2023-06-14T06:13:34;18.20;86.80
52889;DHT22;41413;52.770;6.892;2023-06-14T06:16:03;18.30;86.80
52889;DHT22;41413;52.770;6.892;2023-06-14T06:18:30;18.30;86.50
52889;DHT22;41413;52.770;6.892;2023-06-14T06:20:57;18.40;86.40
52889;DHT22;41413;52.770;6.892;2023-06-14T06:23:23;18.40;86.30
52889;DHT22;41413;52.770;6.892;2023-06-14T06:25:50;18.50;86.70
52889;DHT22;41413;52.770;6.892;2023-06-14T06:28:17;18.50;86.20
52889;DHT22;41413;52.770;6.892;2023-06-14T06:30:44;18.60;85.80
52889;DHT22;41413;52.770;6.892;2023-06-14T06:33:11;18.60;85.70
52889;DHT22;41413;52.770;6.892;2023-06-14T06:35:39;18.70;85.40
52889;DHT22;41413;52.770;6.892;2023-06-14T06:38:06;18.70;85.30
52889;DHT22;41413;52.770;6.892;2023-06-14T06:40:33;18.80;85.40
52889;DHT22;41413;52.770;6.892;2023-06-14T06:43:01;18.90;84.90
52889;DHT22;41413;52.770;6.892;2023-06-14T06:45:28;19.00;84.90
52889;DHT22;41413;52.770;6.892;2023-06-14T06:47:55;19.10;85.00
52889;DHT22;41413;52.770;6.892;2023-06-14T06:50:22;19.20;84.70
52889;DHT22;41413;52.770;6.892;2023-06-14T06:52:50;19.50;84.30
52889;DHT22;41413;52.770;6.892;2023-06-14T06:55:17;19.60;83.90
52889;DHT22;41413;52.770;6.892;2023-06-14T06:57:45;19.60;83.50
52889;DHT22;41413;52.770;6.892;2023-06-14T07:00:12;19.60;83.50
52889;DHT22;41413;52.770;6.892;2023-06-14T07:02:40;19.50;83.80
52889;DHT22;41413;52.770;6.892;2023-06-14T07:05:07;19.50;83.80
52889;DHT22;41413;52.770;6.892;2023-06-14T07:07:34;19.50;83.60
52889;DHT22;41413;52.770;6.892;2023-06-14T07:10:05;19.60;83.60
52889;DHT22;41413;52.770;6.892;2023-06-14T07:12:32;19.60;82.80
52889;DHT22;41413;52.770;6.892;2023-06-14T07:15:00;19.60;82.70
52889;DHT22;41413;52.770;6.892;2023-06-14T07:17:27;19.70;83.00
52889;DHT22;41413;52.770;6.892;2023-06-14T07:19:54;19.70;82.60
52889;DHT22;41413;52.770;6.892;2023-06-14T07:22:21;19.70;82.60
52889;DHT22;41413;52.770;6.892;2023-06-14T07:24:47;19.70;81.90
52889;DHT22;41413;52.770;6.892;2023-06-14T07:27:14;19.70;81.80
52889;DHT22;41413;52.770;6.892;2023-06-14T07:29:41;19.80;81.80
52889;DHT22;41413;52.770;6.892;2023-06-14T07:32:08;19.80;81.50
52889;DHT22;41413;52.770;6.892;2023-06-14T07:34:35;19.80;81.20
52889;DHT22;41413;52.770;6.892;2023-06-14T07:37:02;19.80;80.90
52889;DHT22;41413;52.770;6.892;2023-06-14T07:39:29;19.80;80.70
52889;DHT22;41413;52.770;6.892;2023-06-14T07:41:56;19.80;80.40
52889;DHT22;41413;52.770;6.892;2023-06-14T07:44:23;19.90;80.60
52889;DHT22;41413;52.770;6.892;2023-06-14T07:46:50;19.90;80.30
52889;DHT22;41413;52.770;6.892;2023-06-14T07:49:16;19.90;80.70
52889;DHT22;41413;52.770;6.892;2023-06-14T07:51:44;20.00;80.50
52889;DHT22;41413;52.770;6.892;2023-06-14T07:54:12;20.00;80.10
52889;DHT22;41413;52.770;6.892;2023-06-14T07:56:39;20.10;79.40
52889;DHT22;41413;52.770;6.892;2023-06-14T07:59:09;20.20;79.50
52889;DHT22;41413;52.770;6.892;2023-06-14T08:01:36;20.30;79.10
52889;DHT22;41413;52.770;6.892;2023-06-14T08:04:04;20.40;78.70
52889;DHT22;41413;52.770;6.892;2023-06-14T08:06:31;20.50;78.10
52889;DHT22;41413;52.770;6.892;2023-06-14T08:09:00;20.60;78.40
52889;DHT22;41413;52.770;6.892;2023-06-14T08:11:27;20.60;78.00
52889;DHT22;41413;52.770;6.892;2023-06-14T08:13:53;20.50;77.80
52889;DHT22;41413;52.770;6.892;2023-06-14T08:16:20;20.60;77.50
52889;DHT22;41413;52.770;6.892;2023-06-14T08:18:47;20.60;77.40
52889;DHT22;41413;52.770;6.892;2023-06-14T08:21:14;20.60;77.00
52889;DHT22;41413;52.770;6.892;2023-06-14T08:23:41;20.70;76.60
52889;DHT22;41413;52.770;6.892;2023-06-14T08:26:09;20.60;76.00
52889;DHT22;41413;52.770;6.892;2023-06-14T08:28:36;20.90;75.50
52889;DHT22;41413;52.770;6.892;2023-06-14T08:31:03;21.50;75.40
52889;DHT22;41413;52.770;6.892;2023-06-14T08:33:30;22.60;75.70
52889;DHT22;41413;52.770;6.892;2023-06-14T08:36:00;24.00;75.40
52889;DHT22;41413;52.770;6.892;2023-06-14T08:38:27;24.90;72.90
52889;DHT22;41413;52.770;6.892;2023-06-14T08:40:57;26.00;72.60
52889;DHT22;41413;52.770;6.892;2023-06-14T08:43:24;26.60;70.70
52889;DHT22;41413;52.770;6.892;2023-06-14T08:45:55;27.30;69.90
52889;DHT22;41413;52.770;6.892;2023-06-14T08:48:26;27.70;68.10
52889;DHT22;41413;52.770;6.892;2023-06-14T08:50:55;28.20;66.70
52889;DHT22;41413;52.770;6.892;2023-06-14T08:53:30;28.50;66.30
52889;DHT22;41413;52.770;6.892;2023-06-14T08:56:02;29.30;66.70
52889;DHT22;41413;52.770;6.892;2023-06-14T08:58:31;29.40;65.30
52889;DHT22;41413;52.770;6.892;2023-06-14T09:01:03;29.60;64.80
52889;DHT22;41413;52.770;6.892;2023-06-14T09:03:31;29.90;63.90
52889;DHT22;41413;52.770;6.892;2023-06-14T09:06:00;29.60;62.80
52889;DHT22;41413;52.770;6.892;2023-06-14T09:08:27;29.40;62.70
52889;DHT22;41413;52.770;6.892;2023-06-14T09:10:57;29.30;62.80
52889;DHT22;41413;52.770;6.892;2023-06-14T09:13:26;29.20;63.70
52889;DHT22;41413;52.770;6.892;2023-06-14T09:15:57;29.10;62.30
52889;DHT22;41413;52.770;6.892;2023-06-14T09:18:34;29.10;62.90
52889;DHT22;41413;52.770;6.892;2023-06-14T09:21:02;29.40;63.00
52889;DHT22;41413;52.770;6.892;2023-06-14T09:23:28;29.30;62.70
52889;DHT22;41413;52.770;6.892;2023-06-14T09:25:56;29.30;62.60
52889;DHT22;41413;52.770;6.892;2023-06-14T09:28:27;29.00;62.50
52889;DHT22;41413;52.770;6.892;2023-06-14T09:30:54;29.10;62.50
52889;DHT22;41413;52.770;6.892;2023-06-14T09:33:21;29.40;62.40
52889;DHT22;41413;52.770;6.892;2023-06-14T09:35:51;29.20;61.20
52889;DHT22;41413;52.770;6.892;2023-06-14T09:38:19;29.00;59.30
52889;DHT22;41413;52.770;6.892;2023-06-14T09:40:46;28.60;59.60
52889;DHT22;41413;52.770;6.892;2023-06-14T09:43:13;28.40;59.40
52889;DHT22;41413;52.770;6.892;2023-06-14T09:45:39;28.00;59.60
52889;DHT22;41413;52.770;6.892;2023-06-14T09:48:07;27.80;59.80
52889;DHT22;41413;52.770;6.892;2023-06-14T09:50:37;28.00;60.80
52889;DHT22;41413;52.770;6.892;2023-06-14T09:53:07;28.40;61.30
52889;DHT22;41413;52.770;6.892;2023-06-14T09:55:36;28.60;61.30
52889;DHT22;41413;52.770;6.892;2023-06-14T09:58:07;28.40;60.30
52889;DHT22;41413;52.770;6.892;2023-06-14T10:00:35;28.50;60.60
52889;DHT22;41413;52.770;6.892;2023-06-14T10:03:11;28.70;61.20
52889;DHT22;41413;52.770;6.892;2023-06-14T10:05:41;28.70;60.30
52889;DHT22;41413;52.770;6.892;2023-06-14T10:08:09;28.40;61.20
52889;DHT22;41413;52.770;6.892;2023-06-14T10:10:39;28.30;60.50
52889;DHT22;41413;52.770;6.892;2023-06-14T10:13:07;28.30;61.10
52889;DHT22;41413;52.770;6.892;2023-06-14T10:15:59;28.50;61.30
52889;DHT22;41413;52.770;6.892;2023-06-14T10:21:36;28.80;62.20
52889;DHT22;41413;52.770;6.892;2023-06-14T10:24:07;28.90;60.90
52889;DHT22;41413;52.770;6.892;2023-06-14T10:26:50;28.60;59.90
52889;DHT22;41413;52.770;6.892;2023-06-14T10:29:18;28.30;60.10
52889;DHT22;41413;52.770;6.892;2023-06-14T10:31:49;28.10;60.80
52889;DHT22;41413;52.770;6.892;2023-06-14T10:34:30;28.30;61.90
52889;DHT22;41413;52.770;6.892;2023-06-14T10:37:05;28.40;61.00
52889;DHT22;41413;52.770;6.892;2023-06-14T10:39:41;28.30;61.60
52889;DHT22;41413;52.770;6.892;2023-06-14T10:42:08;28.40;61.90
52889;DHT22;41413;52.770;6.892;2023-06-14T10:44:45;28.40;61.40
52889;DHT22;41413;52.770;6.892;2023-06-14T10:47:33;28.60;61.50
52889;DHT22;41413;52.770;6.892;2023-06-14T10:52:30;28.50;61.60
52889;DHT22;41413;52.770;6.892;2023-06-14T10:55:00;28.30;61.30
52889;DHT22;41413;52.770;6.892;2023-06-14T10:57:37;28.20;61.00
52889;DHT22;41413;52.770;6.892;2023-06-14T11:00:19;28.50;61.90
52889;DHT22;41413;52.770;6.892;2023-06-14T11:05:25;28.60;61.90
52889;DHT22;41413;52.770;6.892;2023-06-14T11:10:42;29.00;61.20
52889;DHT22;41413;52.770;6.892;2023-06-14T11:13:10;28.90;60.80
52889;DHT22;41413;52.770;6.892;2023-06-14T11:15:37;28.70;60.80
52889;DHT22;41413;52.770;6.892;2023-06-14T11:18:06;28.70;61.10
52889;DHT22;41413;52.770;6.892;2023-06-14T11:20:35;28.90;61.40
52889;DHT22;41413;52.770;6.892;2023-06-14T11:23:04;28.50;60.40
52889;DHT22;41413;52.770;6.892;2023-06-14T11:25:31;28.30;61.00
52889;DHT22;41413;52.770;6.892;2023-06-14T11:27:58;27.80;60.30
52889;DHT22;41413;52.770;6.892;2023-06-14T11:30:25;28.00;60.80
52889;DHT22;41413;52.770;6.892;2023-06-14T11:32:54;27.70;61.00
52889;DHT22;41413;52.770;6.892;2023-06-14T11:35:25;27.80;61.70
52889;DHT22;41413;52.770;6.892;2023-06-14T11:37:55;27.70;61.60
52889;DHT22;41413;52.770;6.892;2023-06-14T11:40:24;27.90;62.00
52889;DHT22;41413;52.770;6.892;2023-06-14T11:42:58;27.90;61.80
52889;DHT22;41413;52.770;6.892;2023-06-14T11:45:27;28.10;61.60
52889;DHT22;41413;52.770;6.892;2023-06-14T11:48:00;28.00;61.70
52889;DHT22;41413;52.770;6.892;2023-06-14T11:50:28;28.10;61.90
52889;DHT22;41413;52.770;6.892;2023-06-14T11:52:59;28.20;62.20
52889;DHT22;41413;52.770;6.892;2023-06-14T11:55:30;28.20;61.90
52889;DHT22;41413;52.770;6.892;2023-06-14T11:57:57;28.30;62.10
52889;DHT22;41413;52.770;6.892;2023-06-14T12:00:27;28.60;61.80
52889;DHT22;41413;52.770;6.892;2023-06-14T12:02:55;28.40;61.90
52889;DHT22;41413;52.770;6.892;2023-06-14T12:05:25;28.50;62.10
52889;DHT22;41413;52.770;6.892;2023-06-14T12:08:00;28.50;61.90
52889;DHT22;41413;52.770;6.892;2023-06-14T12:10:28;28.70;61.50
52889;DHT22;41413;52.770;6.892;2023-06-14T12:12:59;28.40;61.30
52889;DHT22;41413;52.770;6.892;2023-06-14T12:15:29;28.30;61.20
52889;DHT22;41413;52.770;6.892;2023-06-14T12:17:57;28.10;62.00
52889;DHT22;41413;52.770;6.892;2023-06-14T12:20:29;28.00;61.60
52889;DHT22;41413;52.770;6.892;2023-06-14T12:22:59;28.00;62.40
52889;DHT22;41413;52.770;6.892;2023-06-14T12:25:28;27.80;62.40
52889;DHT22;41413;52.770;6.892;2023-06-14T12:27:58;28.00;62.80
52889;DHT22;41413;52.770;6.892;2023-06-14T12:30:25;28.30;63.30
52889;DHT22;41413;52.770;6.892;2023-06-14T12:32:52;28.40;62.60
52889;DHT22;41413;52.770;6.892;2023-06-14T12:35:19;28.30;62.20
52889;DHT22;41413;52.770;6.892;2023-06-14T12:37:46;28.30;62.60
52889;DHT22;41413;52.770;6.892;2023-06-14T12:40:13;28.30;62.50
52889;DHT22;41413;52.770;6.892;2023-06-14T12:42:41;28.00;62.10
52889;DHT22;41413;52.770;6.892;2023-06-14T12:45:10;27.90;62.40
52889;DHT22;41413;52.770;6.892;2023-06-14T12:47:37;28.10;63.10
52889;DHT22;41413;52.770;6.892;2023-06-14T12:50:04;28.30;62.70
52889;DHT22;41413;52.770;6.892;2023-06-14T12:52:31;28.40;62.70
52889;DHT22;41413;52.770;6.892;2023-06-14T12:54:58;28.20;62.40
52889;DHT22;41413;52.770;6.892;2023-06-14T12:57:24;28.40;63.50
52889;DHT22;41413;52.770;6.892;2023-06-14T12:59:51;28.50;63.10
52889;DHT22;41413;52.770;6.892;2023-06-14T13:02:20;28.50;63.40
52889;DHT22;41413;52.770;6.892;2023-06-14T13:04:51;28.50;62.80
52889;DHT22;41413;52.770;6.892;2023-06-14T13:07:18;28.60;62.90
52889;DHT22;41413;52.770;6.892;2023-06-14T13:09:45;28.40;63.00
52889;DHT22;41413;52.770;6.892;2023-06-14T13:12:12;28.20;62.70
52889;DHT22;41413;52.770;6.892;2023-06-14T13:14:40;28.30;63.30
52889;DHT22;41413;52.770;6.892;2023-06-14T13:17:10;28.40;62.70
52889;DHT22;41413;52.770;6.892;2023-06-14T13:19:37;28.30;62.50
52889;DHT22;41413;52.770;6.892;2023-06-14T13:22:04;28.30;63.00
52889;DHT22;41413;52.770;6.892;2023-06-14T13:24:31;27.90;63.20
52889;DHT22;41413;52.770;6.892;2023-06-14T13:26:58;27.90;63.20
52889;DHT22;41413;52.770;6.892;2023-06-14T13:29:25;28.10;63.90
52889;DHT22;41413;52.770;6.892;2023-06-14T13:31:53;28.20;63.40
52889;DHT22;41413;52.770;6.892;2023-06-14T13:34:20;28.00;63.00
52889;DHT22;41413;52.770;6.892;2023-06-14T13:36:48;28.00;63.10
52889;DHT22;41413;52.770;6.892;2023-06-14T13:39:16;28.10;63.10
52889;DHT22;41413;52.770;6.892;2023-06-14T13:41:42;28.10;62.70
52889;DHT22;41413;52.770;6.892;2023-06-14T13:44:09;27.70;62.10
52889;DHT22;41413;52.770;6.892;2023-06-14T13:46:42;27.80;62.90
52889;DHT22;41413;52.770;6.892;2023-06-14T13:49:09;27.60;62.50
52889;DHT22;41413;52.770;6.892;2023-06-14T13:51:37;27.80;63.00
52889;DHT22;41413;52.770;6.892;2023-06-14T13:54:04;27.80;63.40
52889;DHT22;41413;52.770;6.892;2023-06-14T13:56:31;28.00;63.70
52889;DHT22;41413;52.770;6.892;2023-06-14T13:58:58;28.30;64.30
52889;DHT22;41413;52.770;6.892;2023-06-14T14:01:24;28.40;63.90
52889;DHT22;41413;52.770;6.892;2023-06-14T14:03:52;28.00;63.40
52889;DHT22;41413;52.770;6.892;2023-06-14T14:06:19;28.00;63.50
52889;DHT22;41413;52.770;6.892;2023-06-14T14:08:46;28.10;63.40
52889;DHT22;41413;52.770;6.892;2023-06-14T14:11:13;28.00;62.90
52889;DHT22;41413;52.770;6.892;2023-06-14T14:13:42;28.00;63.10
52889;DHT22;41413;52.770;6.892;2023-06-14T14:16:09;27.90;62.80
52889;DHT22;41413;52.770;6.892;2023-06-14T14:18:37;27.90;62.70
52889;DHT22;41413;52.770;6.892;2023-06-14T14:21:05;28.10;63.10
52889;DHT22;41413;52.770;6.892;2023-06-14T14:23:31;27.90;62.90
52889;DHT22;41413;52.770;6.892;2023-06-14T14:25:58;27.80;63.10
52889;DHT22;41413;52.770;6.892;2023-06-14T14:28:27;27.50;63.10
52889;DHT22;41413;52.770;6.892;2023-06-14T14:30:54;27.30;63.40
52889;DHT22;41413;52.770;6.892;2023-06-14T14:33:21;27.50;63.60
52889;DHT22;41413;52.770;6.892;2023-06-14T14:35:48;27.70;63.90
52889;DHT22;41413;52.770;6.892;2023-06-14T14:38:15;27.90;64.40
52889;DHT22;41413;52.770;6.892;2023-06-14T14:40:44;28.00;64.00
52889;DHT22;41413;52.770;6.892;2023-06-14T14:43:11;27.60;62.40
52889;DHT22;41413;52.770;6.892;2023-06-14T14:45:38;27.40;63.00
52889;DHT22;41413;52.770;6.892;2023-06-14T14:48:05;27.30;62.70
52889;DHT22;41413;52.770;6.892;2023-06-14T14:50:33;27.40;62.90
52889;DHT22;41413;52.770;6.892;2023-06-14T14:52:59;27.50;63.20
52889;DHT22;41413;52.770;6.892;2023-06-14T14:55:26;27.60;64.00
52889;DHT22;41413;52.770;6.892;2023-06-14T14:57:53;27.80;64.40
52889;DHT22;41413;52.770;6.892;2023-06-14T15:00:20;27.90;63.80
52889;DHT22;41413;52.770;6.892;2023-06-14T15:02:47;28.00;63.80
52889;DHT22;41413;52.770;6.892;2023-06-14T15:05:14;27.80;63.30
52889;DHT22;41413;52.770;6.892;2023-06-14T15:07:41;27.80;63.00
52889;DHT22;41413;52.770;6.892;2023-06-14T15:10:08;27.70;62.90
52889;DHT22;41413;52.770;6.892;2023-06-14T15:12:35;27.70;62.60
52889;DHT22;41413;52.770;6.892;2023-06-14T15:15:02;27.80;62.90
52889;DHT22;41413;52.770;6.892;2023-06-14T15:17:30;27.60;62.50
52889;DHT22;41413;52.770;6.892;2023-06-14T15:19:57;27.80;63.10
52889;DHT22;41413;52.770;6.892;2023-06-14T15:22:23;27.90;63.50
52889;DHT22;41413;52.770;6.892;2023-06-14T15:24:50;27.80;62.50
52889;DHT22;41413;52.770;6.892;2023-06-14T15:27:17;27.90;62.50
52889;DHT22;41413;52.770;6.892;2023-06-14T15:29:44;27.80;62.30
52889;DHT22;41413;52.770;6.892;2023-06-14T15:32:15;27.70;62.20
52889;DHT22;41413;52.770;6.892;2023-06-14T15:34:42;27.50;62.20
52889;DHT22;41413;52.770;6.892;2023-06-14T15:37:08;27.50;62.80
52889;DHT22;41413;52.770;6.892;2023-06-14T15:39:35;27.30;62.70
52889;DHT22;41413;52.770;6.892;2023-06-14T15:42:03;27.30;62.60
52889;DHT22;41413;52.770;6.892;2023-06-14T15:44:30;27.20;62.60
52889;DHT22;41413;52.770;6.892;2023-06-14T15:46:56;27.10;63.00
52889;DHT22;41413;52.770;6.892;2023-06-14T15:49:23;27.00;62.70
52889;DHT22;41413;52.770;6.892;2023-06-14T15:51:50;26.90;62.30
52889;DHT22;41413;52.770;6.892;2023-06-14T15:54:17;26.90;62.50